sensor_id;sensor_type;location;lat;lon;timestamp;temperature;humidity
20045;DHT22;10183;47.808;9.476;2023-04-24T00:00:32;8.70;99.90
20045;DHT22;10183;47.808;9.476;2023-04-24T00:02:58;8.70;99.90
20045;DHT22;10183;47.808;9.476;2023-04-24T00:05:25;8.70;99.90
20045;DHT22;10183;47.808;9.476;2023-04-24T00:07:51;8.60;99.90
20045;DHT22;10183;47.808;9.476;2023-04-24T00:10:21;8.60;99.90
20045;DHT22;10183;47.808;9.476;2023-04-24T00:12:47;8.60;99.90
20045;DHT22;10183;47.808;9.476;2023-04-24T00:15:14;8.60;99.90
20045;DHT22;10183;47.808;9.476;2023-04-24T00:17:40;8.70;99.90
20045;DHT22;10183;47.808;9.476;2023-04-24T00:20:06;8.70;99.90
20045;DHT22;10183;47.808;9.476;2023-04-24T00:22:33;8.60;99.90
20045;DHT22;10183;47.808;9.476;2023-04-24T00:25:00;8.60;99.90
20045;DHT22;10183;47.808;9.476;2023-04-24T00:27:26;8.60;99.90
20045;DHT22;10183;47.808;9.476;2023-04-24T00:29:52;8.60;99.90
20045;DHT22;10183;47.808;9.476;2023-04-24T00:32:18;8.70;99.90
20045;DHT22;10183;47.808;9.476;2023-04-24T00:34:45;8.70;99.90
20045;DHT22;10183;47.808;9.476;2023-04-24T00:37:11;8.60;99.90
20045;DHT22;10183;47.808;9.476;2023-04-24T00:39:38;8.60;99.90
20045;DHT22;10183;47.808;9.476;2023-04-24T00:42:05;8.60;99.90
20045;DHT22;10183;47.808;9.476;2023-04-24T00:44:33;8.60;99.90
20045;DHT22;10183;47.808;9.476;2023-04-24T00:47:01;8.60;99.90
20045;DHT22;10183;47.808;9.476;2023-04-24T00:49:27;8.50;99.90
20045;DHT22;10183;47.808;9.476;2023-04-24T00:51:53;8.50;99.90
20045;DHT22;10183;47.808;9.476;2023-04-24T00:54:20;8.50;99.90
20045;DHT22;10183;47.808;9.476;2023-04-24T00:56:46;8.40;99.90
20045;DHT22;10183;47.808;9.476;2023-04-24T00:59:13;8.40;99.90
20045;DHT22;10183;47.808;9.476;2023-04-24T01:01:42;8.40;99.90
20045;DHT22;10183;47.808;9.476;2023-04-24T01:04:09;8.50;99.90
20045;DHT22;10183;47.808;9.476;2023-04-24T01:06:39;8.50;99.90
20045;DHT22;10183;47.808;9.476;2023-04-24T01:09:06;8.50;99.90
20045;DHT22;10183;47.808;9.476;2023-04-24T01:11:34;8.50;99.90
20045;DHT22;10183;47.808;9.476;2023-04-24T01:14:01;8.50;99.90
20045;DHT22;10183;47.808;9.476;2023-04-24T01:16:27;8.50;99.90
20045;DHT22;10183;47.808;9.476;2023-04-24T01:18:53;8.50;99.90
20045;DHT22;10183;47.808;9.476;2023-04-24T01:21:20;8.50;99.90
20045;DHT22;10183;47.808;9.476;2023-04-24T01:23:47;8.50;99.90
20045;DHT22;10183;47.808;9.476;2023-04-24T01:26:18;8.50;99.90
20045;DHT22;10183;47.808;9.476;2023-04-24T01:28:46;8.50;99.90
20045;DHT22;10183;47.808;9.476;2023-04-24T01:31:12;8.50;99.90
20045;DHT22;10183;47.808;9.476;2023-04-24T01:33:38;8.50;99.90
20045;DHT22;10183;47.808;9.476;2023-04-24T01:36:05;8.50;99.90
20045;DHT22;10183;47.808;9.476;2023-04-24T01:38:31;8.50;99.90
20045;DHT22;10183;47.808;9.476;2023-04-24T01:40:58;8.50;99.90
20045;DHT22;10183;47.808;9.476;2023-04-24T01:43:24;8.50;99.90
20045;DHT22;10183;47.808;9.476;2023-04-24T01:45:50;8.50;99.90
20045;DHT22;10183;47.808;9.476;2023-04-24T01:48:17;8.50;99.90
20045;DHT22;10183;47.808;9.476;2023-04-24T01:50:43;8.40;99.90
20045;DHT22;10183;47.808;9.476;2023-04-24T01:53:09;8.50;99.90
20045;DHT22;10183;47.808;9.476;2023-04-24T01:55:35;8.50;99.90
20045;DHT22;10183;47.808;9.476;2023-04-24T01:58:01;8.60;99.90
20045;DHT22;10183;47.808;9.476;2023-04-24T02:00:28;8.50;99.90
20045;DHT22;10183;47.808;9.476;2023-04-24T02:02:54;8.50;99.90
20045;DHT22;10183;47.808;9.476;2023-04-24T02:05:20;8.50;99.90
20045;DHT22;10183;47.808;9.476;2023-04-24T02:07:46;8.50;99.90
20045;DHT22;10183;47.808;9.476;2023-04-24T02:10:13;8.50;99.90
20045;DHT22;10183;47.808;9.476;2023-04-24T02:12:39;8.50;99.90
20045;DHT22;10183;47.808;9.476;2023-04-24T02:15:05;8.50;99.90
20045;DHT22;10183;47.808;9.476;2023-04-24T02:17:32;8.40;99.90
20045;DHT22;10183;47.808;9.476;2023-04-24T02:19:58;8.40;99.90
20045;DHT22;10183;47.808;9.476;2023-04-24T02:22:24;8.40;99.90
20045;DHT22;10183;47.808;9.476;2023-04-24T02:24:50;8.40;99.90
20045;DHT22;10183;47.808;9.476;2023-04-24T02:27:16;8.30;99.90
20045;DHT22;10183;47.808;9.476;2023-04-24T02:29:42;8.30;99.90
20045;DHT22;10183;47.808;9.476;2023-04-24T02:32:09;8.40;99.90
20045;DHT22;10183;47.808;9.476;2023-04-24T02:34:38;8.40;99.90
20045;DHT22;10183;47.808;9.476;2023-04-24T02:37:04;8.40;99.90
20045;DHT22;10183;47.808;9.476;2023-04-24T02:39:30;8.30;99.90
20045;DHT22;10183;47.808;9.476;2023-04-24T02:41:56;8.30;99.90
20045;DHT22;10183;47.808;9.476;2023-04-24T02:44:22;8.30;99.90
20045;DHT22;10183;47.808;9.476;2023-04-24T02:46:49;8.20;99.90
20045;DHT22;10183;47.808;9.476;2023-04-24T02:49:15;8.20;99.90
20045;DHT22;10183;47.808;9.476;2023-04-24T02:51:41;8.20;99.90
20045;DHT22;10183;47.808;9.476;2023-04-24T02:54:08;8.20;99.90
20045;DHT22;10183;47.808;9.476;2023-04-24T02:56:39;8.20;99.90
20045;DHT22;10183;47.808;9.476;2023-04-24T02:59:05;8.20;99.90
20045;DHT22;10183;47.808;9.476;2023-04-24T03:01:31;8.10;99.90
20045;DHT22;10183;47.808;9.476;2023-04-24T03:03:58;8.20;99.90
20045;DHT22;10183;47.808;9.476;2023-04-24T03:06:24;8.10;99.90
20045;DHT22;10183;47.808;9.476;2023-04-24T03:08:50;8.10;99.90
20045;DHT22;10183;47.808;9.476;2023-04-24T03:11:16;8.10;99.90
20045;DHT22;10183;47.808;9.476;2023-04-24T03:13:42;8.10;99.90
20045;DHT22;10183;47.808;9.476;2023-04-24T03:16:08;8.00;99.90
20045;DHT22;10183;47.808;9.476;2023-04-24T03:18:34;8.00;99.90
20045;DHT22;10183;47.808;9.476;2023-04-24T03:21:01;8.00;99.90
20045;DHT22;10183;47.808;9.476;2023-04-24T03:23:27;8.00;99.90
20045;DHT22;10183;47.808;9.476;2023-04-24T03:25:53;8.00;99.90
20045;DHT22;10183;47.808;9.476;2023-04-24T03:28:20;8.00;99.90
20045;DHT22;10183;47.808;9.476;2023-04-24T03:30:46;8.00;99.90
20045;DHT22;10183;47.808;9.476;2023-04-24T03:33:13;8.00;99.90
20045;DHT22;10183;47.808;9.476;2023-04-24T03:35:39;8.00;99.90
20045;DHT22;10183;47.808;9.476;2023-04-24T03:38:05;8.00;99.90
20045;DHT22;10183;47.808;9.476;2023-04-24T03:40:31;7.90;99.90
20045;DHT22;10183;47.808;9.476;2023-04-24T03:42:59;7.90;99.90
20045;DHT22;10183;47.808;9.476;2023-04-24T03:45:25;7.80;99.90
20045;DHT22;10183;47.808;9.476;2023-04-24T03:47:51;7.90;99.90
20045;DHT22;10183;47.808;9.476;2023-04-24T03:50:17;7.90;99.90
20045;DHT22;10183;47.808;9.476;2023-04-24T03:52:44;7.90;99.90
20045;DHT22;10183;47.808;9.476;2023-04-24T03:55:10;7.80;99.90
20045;DHT22;10183;47.808;9.476;2023-04-24T03:57:40;7.90;99.90
20045;DHT22;10183;47.808;9.476;2023-04-24T04:00:07;7.90;99.90
20045;DHT22;10183;47.808;9.476;2023-04-24T04:02:34;7.90;99.90
20045;DHT22;10183;47.808;9.476;2023-04-24T04:05:00;7.90;99.90
20045;DHT22;10183;47.808;9.476;2023-04-24T04:07:27;7.90;99.90
20045;DHT22;10183;47.808;9.476;2023-04-24T04:09:55;7.90;99.90
20045;DHT22;10183;47.808;9.476;2023-04-24T04:12:21;7.90;99.90
20045;DHT22;10183;47.808;9.476;2023-04-24T04:14:47;7.90;99.90
20045;DHT22;10183;47.808;9.476;2023-04-24T04:17:14;7.90;99.90
20045;DHT22;10183;47.808;9.476;2023-04-24T04:19:40;7.90;99.90
20045;DHT22;10183;47.808;9.476;2023-04-24T04:22:06;7.80;99.90
20045;DHT22;10183;47.808;9.476;2023-04-24T04:24:34;7.90;99.90
20045;DHT22;10183;47.808;9.476;2023-04-24T04:27:04;7.80;99.90
20045;DHT22;10183;47.808;9.476;2023-04-24T04:29:31;7.80;99.90
20045;DHT22;10183;47.808;9.476;2023-04-24T04:31:57;7.80;99.90
20045;DHT22;10183;47.808;9.476;2023-04-24T04:34:24;7.90;99.90
20045;DHT22;10183;47.808;9.476;2023-04-24T04:36:50;7.90;99.90
20045;DHT22;10183;47.808;9.476;2023-04-24T04:39:16;7.90;99.90
20045;DHT22;10183;47.808;9.476;2023-04-24T04:41:44;7.80;99.90
20045;DHT22;10183;47.808;9.476;2023-04-24T04:44:25;7.80;99.90
20045;DHT22;10183;47.808;9.476;2023-04-24T04:46:53;7.80;99.90
20045;DHT22;10183;47.808;9.476;2023-04-24T04:49:22;7.80;99.90
20045;DHT22;10183;47.808;9.476;2023-04-24T04:51:49;7.80;99.90
20045;DHT22;10183;47.808;9.476;2023-04-24T04:54:17;7.80;99.90
20045;DHT22;10183;47.808;9.476;2023-04-24T04:56:44;7.90;99.90
20045;DHT22;10183;47.808;9.476;2023-04-24T04:59:10;7.80;99.90
20045;DHT22;10183;47.808;9.476;2023-04-24T05:01:36;7.80;99.90
20045;DHT22;10183;47.808;9.476;2023-04-24T05:04:03;7.90;99.90
20045;DHT22;10183;47.808;9.476;2023-04-24T05:06:29;7.90;99.90
20045;DHT22;10183;47.808;9.476;2023-04-24T05:08:56;7.90;99.90
20045;DHT22;10183;47.808;9.476;2023-04-24T05:11:23;7.90;99.90
20045;DHT22;10183;47.808;9.476;2023-04-24T05:13:49;7.90;99.90
20045;DHT22;10183;47.808;9.476;2023-04-24T05:16:15;7.90;99.90
20045;DHT22;10183;47.808;9.476;2023-04-24T05:18:41;7.90;99.90
20045;DHT22;10183;47.808;9.476;2023-04-24T05:21:07;7.90;99.90
20045;DHT22;10183;47.808;9.476;2023-04-24T05:23:33;7.90;99.90
20045;DHT22;10183;47.808;9.476;2023-04-24T05:26:00;7.90;99.90
20045;DHT22;10183;47.808;9.476;2023-04-24T05:28:26;7.80;99.90
20045;DHT22;10183;47.808;9.476;2023-04-24T05:30:55;7.80;99.90
20045;DHT22;10183;47.808;9.476;2023-04-24T05:33:22;7.70;99.90
20045;DHT22;10183;47.808;9.476;2023-04-24T05:35:48;7.70;99.90
20045;DHT22;10183;47.808;9.476;2023-04-24T05:38:14;7.70;99.90
20045;DHT22;10183;47.808;9.476;2023-04-24T05:40:43;7.60;99.90
20045;DHT22;10183;47.808;9.476;2023-04-24T05:43:09;7.60;99.90
20045;DHT22;10183;47.808;9.476;2023-04-24T05:45:35;7.60;99.90
20045;DHT22;10183;47.808;9.476;2023-04-24T05:48:02;7.60;99.90
20045;DHT22;10183;47.808;9.476;2023-04-24T05:50:29;7.60;99.90
20045;DHT22;10183;47.808;9.476;2023-04-24T05:52:55;7.50;99.90
20045;DHT22;10183;47.808;9.476;2023-04-24T05:55:24;7.50;99.90
20045;DHT22;10183;47.808;9.476;2023-04-24T05:57:51;7.50;99.90
20045;DHT22;10183;47.808;9.476;2023-04-24T06:00:17;7.50;99.90
20045;DHT22;10183;47.808;9.476;2023-04-24T06:02:46;7.50;99.90
20045;DHT22;10183;47.808;9.476;2023-04-24T06:05:12;7.50;99.90
20045;DHT22;10183;47.808;9.476;2023-04-24T06:07:39;7.50;99.90
20045;DHT22;10183;47.808;9.476;2023-04-24T06:10:06;7.50;99.90
20045;DHT22;10183;47.808;9.476;2023-04-24T06:12:32;7.50;99.90
20045;DHT22;10183;47.808;9.476;2023-04-24T06:14:58;7.50;99.90
20045;DHT22;10183;47.808;9.476;2023-04-24T06:17:26;7.50;99.90
20045;DHT22;10183;47.808;9.476;2023-04-24T06:19:52;7.50;99.90
20045;DHT22;10183;47.808;9.476;2023-04-24T06:22:18;7.50;99.90
20045;DHT22;10183;47.808;9.476;2023-04-24T06:24:44;7.60;99.90
20045;DHT22;10183;47.808;9.476;2023-04-24T06:27:10;7.50;99.90
20045;DHT22;10183;47.808;9.476;2023-04-24T06:29:37;7.60;99.90
20045;DHT22;10183;47.808;9.476;2023-04-24T06:32:03;7.70;99.90
20045;DHT22;10183;47.808;9.476;2023-04-24T06:34:29;7.80;99.90
20045;DHT22;10183;47.808;9.476;2023-04-24T06:36:56;7.90;99.90
20045;DHT22;10183;47.808;9.476;2023-04-24T06:39:23;7.80;99.90
20045;DHT22;10183;47.808;9.476;2023-04-24T06:41:49;8.00;99.90
20045;DHT22;10183;47.808;9.476;2023-04-24T06:44:15;8.00;99.90
20045;DHT22;10183;47.808;9.476;2023-04-24T06:46:41;8.00;99.90
20045;DHT22;10183;47.808;9.476;2023-04-24T06:49:07;8.20;99.90
20045;DHT22;10183;47.808;9.476;2023-04-24T06:51:34;8.20;99.90
20045;DHT22;10183;47.808;9.476;2023-04-24T06:54:00;8.30;99.90
20045;DHT22;10183;47.808;9.476;2023-04-24T06:56:26;8.20;99.90
20045;DHT22;10183;47.808;9.476;2023-04-24T06:58:54;8.10;99.90
20045;DHT22;10183;47.808;9.476;2023-04-24T07:01:21;8.20;99.90
20045;DHT22;10183;47.808;9.476;2023-04-24T07:03:47;8.50;99.90
20045;DHT22;10183;47.808;9.476;2023-04-24T07:06:13;8.70;99.90
20045;DHT22;10183;47.808;9.476;2023-04-24T07:08:40;8.70;99.90
20045;DHT22;10183;47.808;9.476;2023-04-24T07:11:07;8.70;99.90
20045;DHT22;10183;47.808;9.476;2023-04-24T07:13:33;8.60;99.90
20045;DHT22;10183;47.808;9.476;2023-04-24T07:16:01;8.50;99.90
20045;DHT22;10183;47.808;9.476;2023-04-24T07:18:27;8.60;99.90
20045;DHT22;10183;47.808;9.476;2023-04-24T07:20:53;8.70;99.90
20045;DHT22;10183;47.808;9.476;2023-04-24T07:23:20;8.70;99.90
20045;DHT22;10183;47.808;9.476;2023-04-24T07:25:46;8.80;99.90
20045;DHT22;10183;47.808;9.476;2023-04-24T07:28:12;8.70;99.90
20045;DHT22;10183;47.808;9.476;2023-04-24T07:30:39;8.70;99.90
20045;DHT22;10183;47.808;9.476;2023-04-24T07:33:05;9.00;99.90
20045;DHT22;10183;47.808;9.476;2023-04-24T07:35:33;9.00;99.90
20045;DHT22;10183;47.808;9.476;2023-04-24T07:37:59;9.30;99.90
20045;DHT22;10183;47.808;9.476;2023-04-24T07:40:26;9.20;99.90
20045;DHT22;10183;47.808;9.476;2023-04-24T07:42:52;9.10;99.90
20045;DHT22;10183;47.808;9.476;2023-04-24T07:45:18;9.30;99.90
20045;DHT22;10183;47.808;9.476;2023-04-24T07:47:44;9.60;99.90
20045;DHT22;10183;47.808;9.476;2023-04-24T07:50:12;10.10;99.90
20045;DHT22;10183;47.808;9.476;2023-04-24T07:52:38;10.00;99.90
20045;DHT22;10183;47.808;9.476;2023-04-24T07:55:05;9.80;99.90
20045;DHT22;10183;47.808;9.476;2023-04-24T07:57:31;9.80;99.90
20045;DHT22;10183;47.808;9.476;2023-04-24T07:59:57;10.00;99.90
20045;DHT22;10183;47.808;9.476;2023-04-24T08:02:23;9.60;99.90
20045;DHT22;10183;47.808;9.476;2023-04-24T08:04:55;9.40;99.90
20045;DHT22;10183;47.808;9.476;2023-04-24T08:07:22;9.20;99.90
20045;DHT22;10183;47.808;9.476;2023-04-24T08:09:48;8.90;99.90
20045;DHT22;10183;47.808;9.476;2023-04-24T08:12:15;8.70;99.90
20045;DHT22;10183;47.808;9.476;2023-04-24T08:14:41;8.80;99.90
20045;DHT22;10183;47.808;9.476;2023-04-24T08:17:07;9.00;99.90
20045;DHT22;10183;47.808;9.476;2023-04-24T08:19:33;9.20;99.90
20045;DHT22;10183;47.808;9.476;2023-04-24T08:21:59;9.60;99.90
20045;DHT22;10183;47.808;9.476;2023-04-24T08:24:25;9.90;99.90
20045;DHT22;10183;47.808;9.476;2023-04-24T08:26:52;10.30;99.90
20045;DHT22;10183;47.808;9.476;2023-04-24T08:29:20;10.10;99.90
20045;DHT22;10183;47.808;9.476;2023-04-24T08:31:46;9.70;99.90
20045;DHT22;10183;47.808;9.476;2023-04-24T08:34:12;9.40;99.90
20045;DHT22;10183;47.808;9.476;2023-04-24T08:36:38;9.30;99.90
20045;DHT22;10183;47.808;9.476;2023-04-24T08:39:06;9.20;99.90
20045;DHT22;10183;47.808;9.476;2023-04-24T08:41:34;9.10;99.90
20045;DHT22;10183;47.808;9.476;2023-04-24T08:44:02;9.10;99.90
20045;DHT22;10183;47.808;9.476;2023-04-24T08:46:30;8.80;99.90
20045;DHT22;10183;47.808;9.476;2023-04-24T08:48:56;8.30;99.90
20045;DHT22;10183;47.808;9.476;2023-04-24T08:51:24;8.10;99.90
20045;DHT22;10183;47.808;9.476;2023-04-24T08:53:53;8.20;99.90
20045;DHT22;10183;47.808;9.476;2023-04-24T08:56:21;8.30;99.90
20045;DHT22;10183;47.808;9.476;2023-04-24T08:58:53;8.60;99.90
20045;DHT22;10183;47.808;9.476;2023-04-24T09:01:19;8.90;99.90
20045;DHT22;10183;47.808;9.476;2023-04-24T09:03:49;9.10;99.90
20045;DHT22;10183;47.808;9.476;2023-04-24T09:06:17;9.50;99.90
20045;DHT22;10183;47.808;9.476;2023-04-24T09:08:45;9.60;99.90
20045;DHT22;10183;47.808;9.476;2023-04-24T09:11:11;10.20;99.90
20045;DHT22;10183;47.808;9.476;2023-04-24T09:13:38;10.20;99.90
20045;DHT22;10183;47.808;9.476;2023-04-24T09:16:04;10.00;99.90
20045;DHT22;10183;47.808;9.476;2023-04-24T09:18:30;10.20;99.90
20045;DHT22;10183;47.808;9.476;2023-04-24T09:23:26;10.40;99.90
20045;DHT22;10183;47.808;9.476;2023-04-24T09:25:55;10.70;99.90
20045;DHT22;10183;47.808;9.476;2023-04-24T09:31:14;10.90;99.90
20045;DHT22;10183;47.808;9.476;2023-04-24T09:34:01;10.90;99.90
20045;DHT22;10183;47.808;9.476;2023-04-24T09:36:37;10.60;99.90
20045;DHT22;10183;47.808;9.476;2023-04-24T09:39:08;10.80;99.90
20045;DHT22;10183;47.808;9.476;2023-04-24T09:44:18;11.60;99.90
20045;DHT22;10183;47.808;9.476;2023-04-24T09:46:53;11.50;99.90
20045;DHT22;10183;47.808;9.476;2023-04-24T09:49:26;11.90;99.90
20045;DHT22;10183;47.808;9.476;2023-04-24T09:52:08;11.70;99.90
20045;DHT22;10183;47.808;9.476;2023-04-24T09:54:35;11.00;99.90
20045;DHT22;10183;47.808;9.476;2023-04-24T09:57:02;11.70;99.90
20045;DHT22;10183;47.808;9.476;2023-04-24T09:59:29;12.00;99.90
20045;DHT22;10183;47.808;9.476;2023-04-24T10:01:56;10.90;99.90
20045;DHT22;10183;47.808;9.476;2023-04-24T10:04:26;10.70;99.90
20045;DHT22;10183;47.808;9.476;2023-04-24T10:06:54;10.80;99.90
20045;DHT22;10183;47.808;9.476;2023-04-24T10:09:23;10.80;99.90
20045;DHT22;10183;47.808;9.476;2023-04-24T10:11:51;10.80;99.90
20045;DHT22;10183;47.808;9.476;2023-04-24T10:14:20;10.50;99.90
20045;DHT22;10183;47.808;9.476;2023-04-24T10:16:47;10.50;99.90
20045;DHT22;10183;47.808;9.476;2023-04-24T10:19:14;10.50;99.90
20045;DHT22;10183;47.808;9.476;2023-04-24T10:21:43;10.40;99.90
20045;DHT22;10183;47.808;9.476;2023-04-24T10:24:13;10.30;99.90
20045;DHT22;10183;47.808;9.476;2023-04-24T10:26:40;10.30;99.90
20045;DHT22;10183;47.808;9.476;2023-04-24T10:29:07;10.30;99.90
20045;DHT22;10183;47.808;9.476;2023-04-24T10:31:38;10.50;99.90
20045;DHT22;10183;47.808;9.476;2023-04-24T10:34:05;10.40;99.90
20045;DHT22;10183;47.808;9.476;2023-04-24T10:36:38;10.30;99.90
20045;DHT22;10183;47.808;9.476;2023-04-24T10:39:09;10.20;99.90
20045;DHT22;10183;47.808;9.476;2023-04-24T10:41:38;10.50;99.90
20045;DHT22;10183;47.808;9.476;2023-04-24T10:44:08;10.80;99.90
20045;DHT22;10183;47.808;9.476;2023-04-24T10:46:36;11.00;99.90
20045;DHT22;10183;47.808;9.476;2023-04-24T10:49:06;10.90;99.90
20045;DHT22;10183;47.808;9.476;2023-04-24T10:51:50;11.60;99.90
20045;DHT22;10183;47.808;9.476;2023-04-24T10:56:49;11.80;99.90
20045;DHT22;10183;47.808;9.476;2023-04-24T10:59:27;11.90;99.90
20045;DHT22;10183;47.808;9.476;2023-04-24T11:02:00;12.60;99.90
20045;DHT22;10183;47.808;9.476;2023-04-24T11:04:33;12.00;99.90
20045;DHT22;10183;47.808;9.476;2023-04-24T11:07:00;11.50;99.90
20045;DHT22;10183;47.808;9.476;2023-04-24T11:09:27;11.30;99.90
20045;DHT22;10183;47.808;9.476;2023-04-24T11:12:08;11.50;99.90
20045;DHT22;10183;47.808;9.476;2023-04-24T11:17:30;11.10;99.90
20045;DHT22;10183;47.808;9.476;2023-04-24T11:20:02;11.40;99.90
20045;DHT22;10183;47.808;9.476;2023-04-24T11:22:33;11.50;99.90
20045;DHT22;10183;47.808;9.476;2023-04-24T11:25:01;12.30;99.90
20045;DHT22;10183;47.808;9.476;2023-04-24T11:27:32;12.30;99.90
20045;DHT22;10183;47.808;9.476;2023-04-24T11:30:03;12.30;99.90
20045;DHT22;10183;47.808;9.476;2023-04-24T11:32:37;12.20;99.90
20045;DHT22;10183;47.808;9.476;2023-04-24T11:35:15;12.20;99.90
20045;DHT22;10183;47.808;9.476;2023-04-24T11:37:44;13.10;99.90
20045;DHT22;10183;47.808;9.476;2023-04-24T11:40:13;12.90;99.90
20045;DHT22;10183;47.808;9.476;2023-04-24T11:42:43;11.80;99.90
20045;DHT22;10183;47.808;9.476;2023-04-24T11:45:11;11.80;99.90
20045;DHT22;10183;47.808;9.476;2023-04-24T11:47:37;11.00;99.90
20045;DHT22;10183;47.808;9.476;2023-04-24T11:50:06;10.90;99.90
20045;DHT22;10183;47.808;9.476;2023-04-24T11:52:37;10.70;99.90
20045;DHT22;10183;47.808;9.476;2023-04-24T11:55:04;11.40;99.90
20045;DHT22;10183;47.808;9.476;2023-04-24T11:57:32;11.90;99.90
20045;DHT22;10183;47.808;9.476;2023-04-24T12:00:03;12.40;99.90
20045;DHT22;10183;47.808;9.476;2023-04-24T12:02:31;12.70;99.90
20045;DHT22;10183;47.808;9.476;2023-04-24T12:04:57;11.70;99.90
20045;DHT22;10183;47.808;9.476;2023-04-24T12:07:23;11.50;99.90
20045;DHT22;10183;47.808;9.476;2023-04-24T12:09:57;12.20;99.90
20045;DHT22;10183;47.808;9.476;2023-04-24T12:12:27;11.80;99.90
20045;DHT22;10183;47.808;9.476;2023-04-24T12:14:57;12.80;99.90
20045;DHT22;10183;47.808;9.476;2023-04-24T12:17:32;12.30;99.90
20045;DHT22;10183;47.808;9.476;2023-04-24T12:20:08;12.80;99.90
20045;DHT22;10183;47.808;9.476;2023-04-24T12:22:54;13.00;99.90
20045;DHT22;10183;47.808;9.476;2023-04-24T12:25:22;12.70;99.90
20045;DHT22;10183;47.808;9.476;2023-04-24T12:30:34;12.60;99.90
20045;DHT22;10183;47.808;9.476;2023-04-24T12:33:00;11.30;99.90
20045;DHT22;10183;47.808;9.476;2023-04-24T12:35:29;11.80;99.90
20045;DHT22;10183;47.808;9.476;2023-04-24T12:38:11;12.50;99.90
20045;DHT22;10183;47.808;9.476;2023-04-24T12:40:39;12.40;99.90
20045;DHT22;10183;47.808;9.476;2023-04-24T12:43:20;12.10;99.90
20045;DHT22;10183;47.808;9.476;2023-04-24T12:45:47;11.50;99.90
20045;DHT22;10183;47.808;9.476;2023-04-24T12:48:13;11.20;99.90
20045;DHT22;10183;47.808;9.476;2023-04-24T12:50:40;12.20;99.90
20045;DHT22;10183;47.808;9.476;2023-04-24T12:53:08;11.20;99.90
20045;DHT22;10183;47.808;9.476;2023-04-24T12:55:35;11.10;99.90
20045;DHT22;10183;47.808;9.476;2023-04-24T12:58:01;11.30;99.90
20045;DHT22;10183;47.808;9.476;2023-04-24T13:00:29;11.60;99.90
20045;DHT22;10183;47.808;9.476;2023-04-24T13:02:55;12.00;99.90
20045;DHT22;10183;47.808;9.476;2023-04-24T13:05:21;12.80;99.90
20045;DHT22;10183;47.808;9.476;2023-04-24T13:07:47;13.90;99.90
20045;DHT22;10183;47.808;9.476;2023-04-24T13:10:14;11.90;99.90
20045;DHT22;10183;47.808;9.476;2023-04-24T13:12:40;12.70;99.90
20045;DHT22;10183;47.808;9.476;2023-04-24T13:15:07;13.70;99.90
20045;DHT22;10183;47.808;9.476;2023-04-24T13:17:33;12.60;99.90
20045;DHT22;10183;47.808;9.476;2023-04-24T13:20:00;12.30;99.90
20045;DHT22;10183;47.808;9.476;2023-04-24T13:22:26;14.00;99.90
20045;DHT22;10183;47.808;9.476;2023-04-24T13:24:53;15.50;99.90
20045;DHT22;10183;47.808;9.476;2023-04-24T13:27:19;14.40;99.90
20045;DHT22;10183;47.808;9.476;2023-04-24T13:29:46;14.90;99.90
20045;DHT22;10183;47.808;9.476;2023-04-24T13:32:12;14.60;99.90
20045;DHT22;10183;47.808;9.476;2023-04-24T13:34:38;14.40;99.90
20045;DHT22;10183;47.808;9.476;2023-04-24T13:37:05;13.80;99.90
20045;DHT22;10183;47.808;9.476;2023-04-24T13:39:32;14.70;99.90
20045;DHT22;10183;47.808;9.476;2023-04-24T13:41:58;13.80;99.90
20045;DHT22;10183;47.808;9.476;2023-04-24T13:44:25;12.50;99.90
20045;DHT22;10183;47.808;9.476;2023-04-24T13:46:53;12.30;99.90
20045;DHT22;10183;47.808;9.476;2023-04-24T13:49:20;14.50;99.90
20045;DHT22;10183;47.808;9.476;2023-04-24T13:51:47;14.90;99.90
20045;DHT22;10183;47.808;9.476;2023-04-24T13:54:13;15.60;99.00
20045;DHT22;10183;47.808;9.476;2023-04-24T13:56:40;15.00;99.90
20045;DHT22;10183;47.808;9.476;2023-04-24T13:59:06;14.40;99.80
20045;DHT22;10183;47.808;9.476;2023-04-24T14:01:33;13.10;99.90
20045;DHT22;10183;47.808;9.476;2023-04-24T14:03:59;12.30;99.90
20045;DHT22;10183;47.808;9.476;2023-04-24T14:06:25;11.70;99.90
20045;DHT22;10183;47.808;9.476;2023-04-24T14:08:52;11.70;99.90
20045;DHT22;10183;47.808;9.476;2023-04-24T14:11:19;11.80;99.90
20045;DHT22;10183;47.808;9.476;2023-04-24T14:13:45;11.60;99.90
20045;DHT22;10183;47.808;9.476;2023-04-24T14:16:13;11.70;99.90
20045;DHT22;10183;47.808;9.476;2023-04-24T14:18:40;11.70;99.90
20045;DHT22;10183;47.808;9.476;2023-04-24T14:21:06;12.80;99.90
20045;DHT22;10183;47.808;9.476;2023-04-24T14:23:33;12.90;99.90
20045;DHT22;10183;47.808;9.476;2023-04-24T14:25:59;11.80;99.90
20045;DHT22;10183;47.808;9.476;2023-04-24T14:28:26;11.30;99.90
20045;DHT22;10183;47.808;9.476;2023-04-24T14:30:52;11.30;99.90
20045;DHT22;10183;47.808;9.476;2023-04-24T14:33:19;11.10;99.90
20045;DHT22;10183;47.808;9.476;2023-04-24T14:35:46;11.10;99.90
20045;DHT22;10183;47.808;9.476;2023-04-24T14:38:12;10.90;99.90
20045;DHT22;10183;47.808;9.476;2023-04-24T14:40:40;10.90;99.90
20045;DHT22;10183;47.808;9.476;2023-04-24T14:43:06;10.80;99.90
20045;DHT22;10183;47.808;9.476;2023-04-24T14:45:32;10.60;99.90
20045;DHT22;10183;47.808;9.476;2023-04-24T14:47:59;10.50;99.90
20045;DHT22;10183;47.808;9.476;2023-04-24T14:50:25;10.50;99.90
20045;DHT22;10183;47.808;9.476;2023-04-24T14:52:55;10.50;99.90
20045;DHT22;10183;47.808;9.476;2023-04-24T14:55:24;10.40;99.90
20045;DHT22;10183;47.808;9.476;2023-04-24T14:57:50;10.40;99.90
20045;DHT22;10183;47.808;9.476;2023-04-24T15:00:21;10.20;99.90
20045;DHT22;10183;47.808;9.476;2023-04-24T15:02:49;10.20;99.90
20045;DHT22;10183;47.808;9.476;2023-04-24T15:05:15;10.10;99.90
20045;DHT22;10183;47.808;9.476;2023-04-24T15:07:41;10.30;99.90
20045;DHT22;10183;47.808;9.476;2023-04-24T15:10:08;10.50;99.90
20045;DHT22;10183;47.808;9.476;2023-04-24T15:12:34;10.60;99.90
20045;DHT22;10183;47.808;9.476;2023-04-24T15:15:01;10.80;99.90
20045;DHT22;10183;47.808;9.476;2023-04-24T15:17:27;11.10;99.90
20045;DHT22;10183;47.808;9.476;2023-04-24T15:19:53;11.40;99.90
20045;DHT22;10183;47.808;9.476;2023-04-24T15:22:20;11.20;99.90
20045;DHT22;10183;47.808;9.476;2023-04-24T15:24:47;11.10;99.90
20045;DHT22;10183;47.808;9.476;2023-04-24T15:27:14;11.10;99.90
20045;DHT22;10183;47.808;9.476;2023-04-24T15:29:41;10.90;99.90
20045;DHT22;10183;47.808;9.476;2023-04-24T15:32:07;11.00;99.90
20045;DHT22;10183;47.808;9.476;2023-04-24T15:34:33;10.80;99.90
20045;DHT22;10183;47.808;9.476;2023-04-24T15:37:00;10.80;99.90
20045;DHT22;10183;47.808;9.476;2023-04-24T15:39:27;10.80;99.90
20045;DHT22;10183;47.808;9.476;2023-04-24T15:41:53;10.80;99.90
20045;DHT22;10183;47.808;9.476;2023-04-24T15:44:21;10.70;99.90
20045;DHT22;10183;47.808;9.476;2023-04-24T15:46:47;10.60;99.90
20045;DHT22;10183;47.808;9.476;2023-04-24T15:49:13;10.60;99.90
20045;DHT22;10183;47.808;9.476;2023-04-24T15:51:40;10.50;99.90
20045;DHT22;10183;47.808;9.476;2023-04-24T15:54:06;10.50;99.90
20045;DHT22;10183;47.808;9.476;2023-04-24T15:56:32;10.60;99.90